sensor_id;sensor_type;location;lat;lon;timestamp;temperature;humidity
80367;DHT22;70058;42.660;23.366;2023-05-19T00:01:43;14.20;66.80
80367;DHT22;70058;42.660;23.366;2023-05-19T00:04:10;14.20;66.90
80367;DHT22;70058;42.660;23.366;2023-05-19T00:06:39;14.20;67.20
80367;DHT22;70058;42.660;23.366;2023-05-19T00:09:07;14.30;67.20
80367;DHT22;70058;42.660;23.366;2023-05-19T00:11:34;14.30;67.10
80367;DHT22;70058;42.660;23.366;2023-05-19T00:14:02;14.20;67.10
80367;DHT22;70058;42.660;23.366;2023-05-19T00:16:29;14.30;67.20
80367;DHT22;70058;42.660;23.366;2023-05-19T00:18:56;14.20;66.90
80367;DHT22;70058;42.660;23.366;2023-05-19T00:21:22;14.30;66.80
80367;DHT22;70058;42.660;23.366;2023-05-19T00:23:48;14.30;67.00
80367;DHT22;70058;42.660;23.366;2023-05-19T00:26:14;14.20;66.60
80367;DHT22;70058;42.660;23.366;2023-05-19T00:28:40;14.20;66.40
80367;DHT22;70058;42.660;23.366;2023-05-19T00:31:05;14.20;66.40
80367;DHT22;70058;42.660;23.366;2023-05-19T00:33:31;14.20;66.80
80367;DHT22;70058;42.660;23.366;2023-05-19T00:36:00;14.20;66.60
80367;DHT22;70058;42.660;23.366;2023-05-19T00:38:31;14.20;67.00
80367;DHT22;70058;42.660;23.366;2023-05-19T00:40:57;14.20;66.80
80367;DHT22;70058;42.660;23.366;2023-05-19T00:43:23;14.10;66.90
80367;DHT22;70058;42.660;23.366;2023-05-19T00:45:50;14.20;66.90
80367;DHT22;70058;42.660;23.366;2023-05-19T00:48:15;14.10;66.80
80367;DHT22;70058;42.660;23.366;2023-05-19T00:50:41;14.00;66.70
80367;DHT22;70058;42.660;23.366;2023-05-19T00:53:07;14.00;67.80
80367;DHT22;70058;42.660;23.366;2023-05-19T00:55:36;13.90;67.30
80367;DHT22;70058;42.660;23.366;2023-05-19T00:58:03;13.90;67.40
80367;DHT22;70058;42.660;23.366;2023-05-19T01:00:30;13.90;67.80
80367;DHT22;70058;42.660;23.366;2023-05-19T01:02:56;13.80;67.90
80367;DHT22;70058;42.660;23.366;2023-05-19T01:05:22;13.70;68.20
80367;DHT22;70058;42.660;23.366;2023-05-19T01:07:47;13.60;68.30
80367;DHT22;70058;42.660;23.366;2023-05-19T01:10:21;13.50;68.50
80367;DHT22;70058;42.660;23.366;2023-05-19T01:12:47;13.50;68.60
80367;DHT22;70058;42.660;23.366;2023-05-19T01:15:13;13.50;68.70
80367;DHT22;70058;42.660;23.366;2023-05-19T01:20:29;13.40;69.20
80367;DHT22;70058;42.660;23.366;2023-05-19T01:23:34;13.30;69.20
80367;DHT22;70058;42.660;23.366;2023-05-19T01:29:06;13.20;69.80
80367;DHT22;70058;42.660;23.366;2023-05-19T01:31:33;13.00;70.00
80367;DHT22;70058;42.660;23.366;2023-05-19T01:34:02;13.00;70.40
80367;DHT22;70058;42.660;23.366;2023-05-19T01:36:31;13.00;70.70
80367;DHT22;70058;42.660;23.366;2023-05-19T01:38:58;12.90;70.90
80367;DHT22;70058;42.660;23.366;2023-05-19T01:41:25;12.90;70.90
80367;DHT22;70058;42.660;23.366;2023-05-19T01:43:52;12.90;71.00
80367;DHT22;70058;42.660;23.366;2023-05-19T01:46:18;12.90;71.00
80367;DHT22;70058;42.660;23.366;2023-05-19T01:48:46;12.90;71.00
80367;DHT22;70058;42.660;23.366;2023-05-19T01:51:12;12.90;71.10
80367;DHT22;70058;42.660;23.366;2023-05-19T01:53:38;12.90;71.10
80367;DHT22;70058;42.660;23.366;2023-05-19T01:56:05;12.90;71.10
80367;DHT22;70058;42.660;23.366;2023-05-19T01:58:44;12.80;71.20
80367;DHT22;70058;42.660;23.366;2023-05-19T02:09:11;12.80;71.30
80367;DHT22;70058;42.660;23.366;2023-05-19T02:11:51;12.70;71.60
80367;DHT22;70058;42.660;23.366;2023-05-19T02:14:29;12.70;71.60
80367;DHT22;70058;42.660;23.366;2023-05-19T02:16:57;12.70;71.60
80367;DHT22;70058;42.660;23.366;2023-05-19T02:19:26;12.70;71.40
80367;DHT22;70058;42.660;23.366;2023-05-19T02:21:52;12.70;71.50
80367;DHT22;70058;42.660;23.366;2023-05-19T02:24:18;12.70;71.50
80367;DHT22;70058;42.660;23.366;2023-05-19T02:26:51;12.70;71.40
80367;DHT22;70058;42.660;23.366;2023-05-19T02:29:17;12.80;71.10
80367;DHT22;70058;42.660;23.366;2023-05-19T02:31:43;12.80;70.90
80367;DHT22;70058;42.660;23.366;2023-05-19T02:34:08;12.70;71.10
80367;DHT22;70058;42.660;23.366;2023-05-19T02:36:35;12.70;71.20
80367;DHT22;70058;42.660;23.366;2023-05-19T02:39:02;12.70;71.40
80367;DHT22;70058;42.660;23.366;2023-05-19T02:41:28;12.70;71.40
80367;DHT22;70058;42.660;23.366;2023-05-19T02:43:53;12.70;71.40
80367;DHT22;70058;42.660;23.366;2023-05-19T02:46:19;12.70;71.40
80367;DHT22;70058;42.660;23.366;2023-05-19T02:48:45;12.60;71.40
80367;DHT22;70058;42.660;23.366;2023-05-19T02:51:10;12.60;71.50
80367;DHT22;70058;42.660;23.366;2023-05-19T02:53:36;12.60;71.50
80367;DHT22;70058;42.660;23.366;2023-05-19T02:56:02;12.50;71.50
80367;DHT22;70058;42.660;23.366;2023-05-19T02:58:28;12.60;71.50
80367;DHT22;70058;42.660;23.366;2023-05-19T03:00:54;12.60;71.50
80367;DHT22;70058;42.660;23.366;2023-05-19T03:03:20;12.50;71.60
80367;DHT22;70058;42.660;23.366;2023-05-19T03:05:46;12.50;71.50
80367;DHT22;70058;42.660;23.366;2023-05-19T03:08:12;12.50;71.60
80367;DHT22;70058;42.660;23.366;2023-05-19T03:10:38;12.50;71.60
80367;DHT22;70058;42.660;23.366;2023-05-19T03:13:03;12.50;71.50
80367;DHT22;70058;42.660;23.366;2023-05-19T03:15:30;12.60;71.50
80367;DHT22;70058;42.660;23.366;2023-05-19T03:17:57;12.60;72.30
80367;DHT22;70058;42.660;23.366;2023-05-19T03:20:23;12.50;71.50
80367;DHT22;70058;42.660;23.366;2023-05-19T03:22:49;12.50;71.50
80367;DHT22;70058;42.660;23.366;2023-05-19T03:25:15;12.60;71.50
80367;DHT22;70058;42.660;23.366;2023-05-19T03:27:40;12.60;71.40
80367;DHT22;70058;42.660;23.366;2023-05-19T03:30:07;12.70;71.10
80367;DHT22;70058;42.660;23.366;2023-05-19T03:32:33;12.70;71.10
80367;DHT22;70058;42.660;23.366;2023-05-19T03:35:02;12.70;71.10
80367;DHT22;70058;42.660;23.366;2023-05-19T03:37:29;12.70;71.10
80367;DHT22;70058;42.660;23.366;2023-05-19T03:39:55;12.70;71.10
80367;DHT22;70058;42.660;23.366;2023-05-19T03:42:20;12.80;71.00
80367;DHT22;70058;42.660;23.366;2023-05-19T03:44:46;12.80;70.90
80367;DHT22;70058;42.660;23.366;2023-05-19T03:47:11;12.80;70.80
80367;DHT22;70058;42.660;23.366;2023-05-19T03:49:37;12.90;70.80
80367;DHT22;70058;42.660;23.366;2023-05-19T03:52:03;12.90;70.60
80367;DHT22;70058;42.660;23.366;2023-05-19T03:54:28;13.00;70.40
80367;DHT22;70058;42.660;23.366;2023-05-19T03:56:54;13.10;70.40
80367;DHT22;70058;42.660;23.366;2023-05-19T03:59:20;13.10;70.10
80367;DHT22;70058;42.660;23.366;2023-05-19T04:01:48;13.20;69.90
80367;DHT22;70058;42.660;23.366;2023-05-19T04:04:13;13.40;69.60
80367;DHT22;70058;42.660;23.366;2023-05-19T04:06:39;13.50;69.10
80367;DHT22;70058;42.660;23.366;2023-05-19T04:09:11;13.70;68.50
80367;DHT22;70058;42.660;23.366;2023-05-19T04:11:37;14.10;68.00
80367;DHT22;70058;42.660;23.366;2023-05-19T04:14:04;14.90;66.90
80367;DHT22;70058;42.660;23.366;2023-05-19T04:16:30;16.20;63.80
80367;DHT22;70058;42.660;23.366;2023-05-19T04:18:55;17.50;59.80
80367;DHT22;70058;42.660;23.366;2023-05-19T04:21:21;18.60;56.40
80367;DHT22;70058;42.660;23.366;2023-05-19T04:23:47;18.80;54.60
80367;DHT22;70058;42.660;23.366;2023-05-19T04:26:13;18.70;54.30
80367;DHT22;70058;42.660;23.366;2023-05-19T04:28:39;18.50;54.20
80367;DHT22;70058;42.660;23.366;2023-05-19T04:31:07;18.50;54.30
80367;DHT22;70058;42.660;23.366;2023-05-19T04:33:37;18.70;54.30
80367;DHT22;70058;42.660;23.366;2023-05-19T04:36:04;19.30;53.30
80367;DHT22;70058;42.660;23.366;2023-05-19T04:38:33;19.50;52.30
80367;DHT22;70058;42.660;23.366;2023-05-19T04:40:59;19.30;52.30
80367;DHT22;70058;42.660;23.366;2023-05-19T04:43:26;18.80;52.40
80367;DHT22;70058;42.660;23.366;2023-05-19T04:45:53;18.50;53.40
80367;DHT22;70058;42.660;23.366;2023-05-19T04:48:19;18.20;54.20
80367;DHT22;70058;42.660;23.366;2023-05-19T04:50:48;18.10;55.20
80367;DHT22;70058;42.660;23.366;2023-05-19T04:53:16;17.90;55.80
80367;DHT22;70058;42.660;23.366;2023-05-19T04:55:42;17.70;56.30
80367;DHT22;70058;42.660;23.366;2023-05-19T04:58:08;17.50;56.70
80367;DHT22;70058;42.660;23.366;2023-05-19T05:00:35;17.40;57.00
80367;DHT22;70058;42.660;23.366;2023-05-19T05:03:01;17.30;57.20
80367;DHT22;70058;42.660;23.366;2023-05-19T05:05:30;17.20;57.40
80367;DHT22;70058;42.660;23.366;2023-05-19T05:07:56;17.30;57.90
80367;DHT22;70058;42.660;23.366;2023-05-19T05:10:21;17.10;57.90
80367;DHT22;70058;42.660;23.366;2023-05-19T05:12:47;17.10;58.10
80367;DHT22;70058;42.660;23.366;2023-05-19T05:15:13;17.20;58.50
80367;DHT22;70058;42.660;23.366;2023-05-19T05:17:40;17.20;58.60
80367;DHT22;70058;42.660;23.366;2023-05-19T05:20:06;17.30;58.40
80367;DHT22;70058;42.660;23.366;2023-05-19T05:22:32;17.30;58.30
80367;DHT22;70058;42.660;23.366;2023-05-19T05:24:58;17.30;57.70
80367;DHT22;70058;42.660;23.366;2023-05-19T05:27:24;17.40;58.40
80367;DHT22;70058;42.660;23.366;2023-05-19T05:29:50;17.30;58.20
80367;DHT22;70058;42.660;23.366;2023-05-19T05:32:16;17.40;58.20
80367;DHT22;70058;42.660;23.366;2023-05-19T05:34:42;17.50;58.40
80367;DHT22;70058;42.660;23.366;2023-05-19T05:37:07;17.60;57.80
80367;DHT22;70058;42.660;23.366;2023-05-19T05:39:33;17.80;57.60
80367;DHT22;70058;42.660;23.366;2023-05-19T05:41:59;17.90;56.40
80367;DHT22;70058;42.660;23.366;2023-05-19T05:44:25;17.90;56.20
80367;DHT22;70058;42.660;23.366;2023-05-19T05:46:51;17.90;56.00
80367;DHT22;70058;42.660;23.366;2023-05-19T05:49:20;18.40;55.90
80367;DHT22;70058;42.660;23.366;2023-05-19T05:51:46;19.80;54.30
80367;DHT22;70058;42.660;23.366;2023-05-19T05:54:12;21.90;48.60
80367;DHT22;70058;42.660;23.366;2023-05-19T05:56:39;24.20;43.50
80367;DHT22;70058;42.660;23.366;2023-05-19T05:59:05;26.10;39.10
80367;DHT22;70058;42.660;23.366;2023-05-19T06:01:31;27.90;36.40
80367;DHT22;70058;42.660;23.366;2023-05-19T06:03:57;29.30;34.40
80367;DHT22;70058;42.660;23.366;2023-05-19T06:06:23;30.40;32.80
80367;DHT22;70058;42.660;23.366;2023-05-19T06:08:48;31.40;31.40
80367;DHT22;70058;42.660;23.366;2023-05-19T06:11:14;32.20;30.50
80367;DHT22;70058;42.660;23.366;2023-05-19T06:13:40;33.00;29.70
80367;DHT22;70058;42.660;23.366;2023-05-19T06:16:06;34.00;28.60
80367;DHT22;70058;42.660;23.366;2023-05-19T06:18:31;34.50;28.20
80367;DHT22;70058;42.660;23.366;2023-05-19T06:20:57;35.20;27.30
80367;DHT22;70058;42.660;23.366;2023-05-19T06:23:23;35.50;26.70
80367;DHT22;70058;42.660;23.366;2023-05-19T06:25:51;36.20;26.20
80367;DHT22;70058;42.660;23.366;2023-05-19T06:28:16;36.60;25.40
80367;DHT22;70058;42.660;23.366;2023-05-19T06:30:42;37.10;25.50
80367;DHT22;70058;42.660;23.366;2023-05-19T06:33:07;37.40;24.60
80367;DHT22;70058;42.660;23.366;2023-05-19T06:35:33;37.80;24.40
80367;DHT22;70058;42.660;23.366;2023-05-19T06:37:59;37.90;24.60
80367;DHT22;70058;42.660;23.366;2023-05-19T06:40:24;38.20;23.80
80367;DHT22;70058;42.660;23.366;2023-05-19T06:42:50;38.60;23.80
80367;DHT22;70058;42.660;23.366;2023-05-19T06:45:16;39.00;23.20
80367;DHT22;70058;42.660;23.366;2023-05-19T06:47:46;39.60;23.20
80367;DHT22;70058;42.660;23.366;2023-05-19T06:50:11;39.70;22.30
80367;DHT22;70058;42.660;23.366;2023-05-19T06:52:37;40.00;22.00
80367;DHT22;70058;42.660;23.366;2023-05-19T06:55:03;40.00;22.10
80367;DHT22;70058;42.660;23.366;2023-05-19T06:57:29;40.10;22.30
80367;DHT22;70058;42.660;23.366;2023-05-19T06:59:54;40.10;21.40
80367;DHT22;70058;42.660;23.366;2023-05-19T07:02:20;40.10;21.80
80367;DHT22;70058;42.660;23.366;2023-05-19T07:04:46;40.60;21.70
80367;DHT22;70058;42.660;23.366;2023-05-19T07:07:12;41.00;21.70
80367;DHT22;70058;42.660;23.366;2023-05-19T07:09:38;41.10;20.70
80367;DHT22;70058;42.660;23.366;2023-05-19T07:12:04;40.80;21.00
80367;DHT22;70058;42.660;23.366;2023-05-19T07:14:30;40.90;21.10
80367;DHT22;70058;42.660;23.366;2023-05-19T07:16:56;41.40;21.70
80367;DHT22;70058;42.660;23.366;2023-05-19T07:19:21;41.80;20.70
80367;DHT22;70058;42.660;23.366;2023-05-19T07:21:48;41.90;20.00
80367;DHT22;70058;42.660;23.366;2023-05-19T07:24:14;41.80;20.10
80367;DHT22;70058;42.660;23.366;2023-05-19T07:26:40;41.80;20.20
80367;DHT22;70058;42.660;23.366;2023-05-19T07:29:07;41.90;20.20
80367;DHT22;70058;42.660;23.366;2023-05-19T07:31:33;41.60;20.20
80367;DHT22;70058;42.660;23.366;2023-05-19T07:33:58;41.60;20.40
80367;DHT22;70058;42.660;23.366;2023-05-19T07:36:24;41.60;20.30
80367;DHT22;70058;42.660;23.366;2023-05-19T07:38:50;41.90;19.90
80367;DHT22;70058;42.660;23.366;2023-05-19T07:41:15;42.00;19.60
80367;DHT22;70058;42.660;23.366;2023-05-19T07:43:41;41.10;20.30
80367;DHT22;70058;42.660;23.366;2023-05-19T07:46:07;40.70;20.40
80367;DHT22;70058;42.660;23.366;2023-05-19T07:48:33;41.00;20.10
80367;DHT22;70058;42.660;23.366;2023-05-19T07:50:58;40.00;20.20
80367;DHT22;70058;42.660;23.366;2023-05-19T07:53:24;39.70;20.40
80367;DHT22;70058;42.660;23.366;2023-05-19T07:55:50;40.70;19.90
80367;DHT22;70058;42.660;23.366;2023-05-19T07:58:16;40.50;20.20
80367;DHT22;70058;42.660;23.366;2023-05-19T08:00:42;41.50;20.20
80367;DHT22;70058;42.660;23.366;2023-05-19T08:03:10;40.70;19.70
80367;DHT22;70058;42.660;23.366;2023-05-19T08:05:36;39.80;20.60
80367;DHT22;70058;42.660;23.366;2023-05-19T08:08:02;38.50;21.20
80367;DHT22;70058;42.660;23.366;2023-05-19T08:10:28;38.60;20.50
80367;DHT22;70058;42.660;23.366;2023-05-19T08:12:54;37.30;22.30
80367;DHT22;70058;42.660;23.366;2023-05-19T08:15:20;37.20;22.20
80367;DHT22;70058;42.660;23.366;2023-05-19T08:17:46;37.90;22.40
80367;DHT22;70058;42.660;23.366;2023-05-19T08:20:12;39.30;21.20
80367;DHT22;70058;42.660;23.366;2023-05-19T08:22:39;40.40;20.50
80367;DHT22;70058;42.660;23.366;2023-05-19T08:25:05;41.40;20.40
80367;DHT22;70058;42.660;23.366;2023-05-19T08:27:41;42.50;19.30
80367;DHT22;70058;42.660;23.366;2023-05-19T08:30:07;43.10;19.30
80367;DHT22;70058;42.660;23.366;2023-05-19T08:32:33;43.40;18.90
80367;DHT22;70058;42.660;23.366;2023-05-19T08:34:58;43.90;18.20
80367;DHT22;70058;42.660;23.366;2023-05-19T08:37:27;43.40;18.30
80367;DHT22;70058;42.660;23.366;2023-05-19T08:40:03;42.10;19.10
80367;DHT22;70058;42.660;23.366;2023-05-19T08:42:33;41.80;18.90
80367;DHT22;70058;42.660;23.366;2023-05-19T08:45:00;42.70;18.70
80367;DHT22;70058;42.660;23.366;2023-05-19T08:47:26;42.60;18.40
80367;DHT22;70058;42.660;23.366;2023-05-19T08:49:59;41.30;19.50
80367;DHT22;70058;42.660;23.366;2023-05-19T08:52:34;40.70;20.10
80367;DHT22;70058;42.660;23.366;2023-05-19T08:55:14;41.30;19.40
80367;DHT22;70058;42.660;23.366;2023-05-19T08:57:41;42.10;19.70
80367;DHT22;70058;42.660;23.366;2023-05-19T09:00:08;42.30;18.30
80367;DHT22;70058;42.660;23.366;2023-05-19T09:02:37;40.90;19.30
80367;DHT22;70058;42.660;23.366;2023-05-19T09:05:04;42.60;18.80
80367;DHT22;70058;42.660;23.366;2023-05-19T09:07:30;40.00;18.90
80367;DHT22;70058;42.660;23.366;2023-05-19T09:09:59;41.00;20.00
80367;DHT22;70058;42.660;23.366;2023-05-19T09:12:26;39.00;19.30
80367;DHT22;70058;42.660;23.366;2023-05-19T09:14:52;38.50;21.30
80367;DHT22;70058;42.660;23.366;2023-05-19T09:17:18;38.80;20.40
80367;DHT22;70058;42.660;23.366;2023-05-19T09:19:44;40.30;20.00
80367;DHT22;70058;42.660;23.366;2023-05-19T09:22:14;39.70;19.10
80367;DHT22;70058;42.660;23.366;2023-05-19T09:24:40;39.00;20.70
80367;DHT22;70058;42.660;23.366;2023-05-19T09:27:06;40.20;19.90
80367;DHT22;70058;42.660;23.366;2023-05-19T09:29:32;40.60;20.20
80367;DHT22;70058;42.660;23.366;2023-05-19T09:31:58;41.70;19.70
80367;DHT22;70058;42.660;23.366;2023-05-19T09:34:29;42.20;19.30
80367;DHT22;70058;42.660;23.366;2023-05-19T09:36:55;41.90;19.20
80367;DHT22;70058;42.660;23.366;2023-05-19T09:39:22;39.30;18.90
80367;DHT22;70058;42.660;23.366;2023-05-19T09:41:53;34.60;21.90
80367;DHT22;70058;42.660;23.366;2023-05-19T09:46:51;34.70;23.30
80367;DHT22;70058;42.660;23.366;2023-05-19T09:49:21;34.40;23.70
80367;DHT22;70058;42.660;23.366;2023-05-19T09:51:55;36.10;23.50
80367;DHT22;70058;42.660;23.366;2023-05-19T09:54:22;37.60;22.70
80367;DHT22;70058;42.660;23.366;2023-05-19T09:56:57;36.10;21.60
80367;DHT22;70058;42.660;23.366;2023-05-19T09:59:23;36.30;23.50
80367;DHT22;70058;42.660;23.366;2023-05-19T10:01:55;34.00;23.70
80367;DHT22;70058;42.660;23.366;2023-05-19T10:04:26;29.40;28.00
80367;DHT22;70058;42.660;23.366;2023-05-19T10:06:56;30.70;28.60
80367;DHT22;70058;42.660;23.366;2023-05-19T10:09:27;31.70;27.40
80367;DHT22;70058;42.660;23.366;2023-05-19T10:11:55;29.30;29.10
80367;DHT22;70058;42.660;23.366;2023-05-19T10:14:26;28.40;29.40
80367;DHT22;70058;42.660;23.366;2023-05-19T10:16:54;25.40;32.30
80367;DHT22;70058;42.660;23.366;2023-05-19T10:19:24;25.50;35.70
80367;DHT22;70058;42.660;23.366;2023-05-19T10:21:51;26.60;34.50
80367;DHT22;70058;42.660;23.366;2023-05-19T10:24:17;27.60;32.40
80367;DHT22;70058;42.660;23.366;2023-05-19T10:26:47;28.10;30.00
80367;DHT22;70058;42.660;23.366;2023-05-19T10:29:16;28.50;30.20
80367;DHT22;70058;42.660;23.366;2023-05-19T10:31:44;25.10;32.40
80367;DHT22;70058;42.660;23.366;2023-05-19T10:39:34;24.00;36.00
80367;DHT22;70058;42.660;23.366;2023-05-19T10:47:26;25.80;33.00
80367;DHT22;70058;42.660;23.366;2023-05-19T10:49:55;23.00;36.50
80367;DHT22;70058;42.660;23.366;2023-05-19T10:52:22;23.00;37.50
80367;DHT22;70058;42.660;23.366;2023-05-19T10:54:50;23.00;37.60
80367;DHT22;70058;42.660;23.366;2023-05-19T10:57:16;23.10;37.50
80367;DHT22;70058;42.660;23.366;2023-05-19T10:59:43;22.80;38.00
80367;DHT22;70058;42.660;23.366;2023-05-19T11:02:40;23.60;36.90
80367;DHT22;70058;42.660;23.366;2023-05-19T11:05:16;24.00;35.10
80367;DHT22;70058;42.660;23.366;2023-05-19T11:07:57;22.90;37.40
80367;DHT22;70058;42.660;23.366;2023-05-19T11:10:26;23.40;36.30
80367;DHT22;70058;42.660;23.366;2023-05-19T11:12:52;22.90;36.70
80367;DHT22;70058;42.660;23.366;2023-05-19T11:15:24;22.70;38.30
80367;DHT22;70058;42.660;23.366;2023-05-19T11:17:51;23.20;36.20
80367;DHT22;70058;42.660;23.366;2023-05-19T11:20:27;22.90;35.80
80367;DHT22;70058;42.660;23.366;2023-05-19T11:23:16;22.90;37.10
80367;DHT22;70058;42.660;23.366;2023-05-19T11:28:15;23.70;35.20
80367;DHT22;70058;42.660;23.366;2023-05-19T11:30:43;24.60;35.20
80367;DHT22;70058;42.660;23.366;2023-05-19T11:33:09;25.20;33.30
80367;DHT22;70058;42.660;23.366;2023-05-19T11:35:35;25.70;32.60
80367;DHT22;70058;42.660;23.366;2023-05-19T11:38:01;26.00;32.20
80367;DHT22;70058;42.660;23.366;2023-05-19T11:40:28;26.00;31.70
80367;DHT22;70058;42.660;23.366;2023-05-19T11:42:54;25.20;32.00
80367;DHT22;70058;42.660;23.366;2023-05-19T11:45:26;25.40;32.30
80367;DHT22;70058;42.660;23.366;2023-05-19T11:47:54;25.00;33.50
80367;DHT22;70058;42.660;23.366;2023-05-19T11:50:21;25.40;31.90
80367;DHT22;70058;42.660;23.366;2023-05-19T11:52:47;25.50;31.70
80367;DHT22;70058;42.660;23.366;2023-05-19T11:55:18;25.30;32.00
80367;DHT22;70058;42.660;23.366;2023-05-19T11:57:58;25.40;32.30
80367;DHT22;70058;42.660;23.366;2023-05-19T12:00:25;24.10;34.40
80367;DHT22;70058;42.660;23.366;2023-05-19T12:02:51;22.10;39.80
80367;DHT22;70058;42.660;23.366;2023-05-19T12:05:21;21.40;41.80
80367;DHT22;70058;42.660;23.366;2023-05-19T12:07:48;20.90;43.20
80367;DHT22;70058;42.660;23.366;2023-05-19T12:10:25;20.80;43.90
80367;DHT22;70058;42.660;23.366;2023-05-19T12:12:52;20.20;45.20
80367;DHT22;70058;42.660;23.366;2023-05-19T12:15:22;19.50;47.10
80367;DHT22;70058;42.660;23.366;2023-05-19T12:17:58;19.10;48.20
80367;DHT22;70058;42.660;23.366;2023-05-19T12:20:25;18.50;49.30
80367;DHT22;70058;42.660;23.366;2023-05-19T12:22:53;18.10;50.20
80367;DHT22;70058;42.660;23.366;2023-05-19T12:25:20;18.10;50.60
80367;DHT22;70058;42.660;23.366;2023-05-19T12:27:46;18.50;50.20
80367;DHT22;70058;42.660;23.366;2023-05-19T12:30:13;18.90;49.60
80367;DHT22;70058;42.660;23.366;2023-05-19T12:32:39;18.90;50.70
80367;DHT22;70058;42.660;23.366;2023-05-19T12:35:06;19.50;49.00
80367;DHT22;70058;42.660;23.366;2023-05-19T12:37:32;20.10;46.80
80367;DHT22;70058;42.660;23.366;2023-05-19T12:40:00;20.60;44.70
80367;DHT22;70058;42.660;23.366;2023-05-19T12:42:29;21.10;44.10
80367;DHT22;70058;42.660;23.366;2023-05-19T12:45:00;21.40;43.30
80367;DHT22;70058;42.660;23.366;2023-05-19T12:47:32;21.80;42.80
80367;DHT22;70058;42.660;23.366;2023-05-19T12:50:07;22.20;42.10
80367;DHT22;70058;42.660;23.366;2023-05-19T12:52:53;22.50;40.40
80367;DHT22;70058;42.660;23.366;2023-05-19T12:55:20;22.60;39.90
80367;DHT22;70058;42.660;23.366;2023-05-19T12:57:50;22.70;38.90
80367;DHT22;70058;42.660;23.366;2023-05-19T13:00:21;23.00;38.70
80367;DHT22;70058;42.660;23.366;2023-05-19T13:03:02;23.10;37.30
80367;DHT22;70058;42.660;23.366;2023-05-19T13:05:33;22.90;37.10
80367;DHT22;70058;42.660;23.366;2023-05-19T13:08:03;22.50;37.90
80367;DHT22;70058;42.660;23.366;2023-05-19T13:10:29;22.60;37.90
80367;DHT22;70058;42.660;23.366;2023-05-19T13:12:56;22.60;38.00
80367;DHT22;70058;42.660;23.366;2023-05-19T13:15:24;22.70;38.10
80367;DHT22;70058;42.660;23.366;2023-05-19T13:17:54;22.60;38.30
80367;DHT22;70058;42.660;23.366;2023-05-19T13:20:20;22.60;39.00
80367;DHT22;70058;42.660;23.366;2023-05-19T13:22:49;22.60;39.30
80367;DHT22;70058;42.660;23.366;2023-05-19T13:25:15;22.50;39.20
80367;DHT22;70058;42.660;23.366;2023-05-19T13:27:42;22.40;39.10
80367;DHT22;70058;42.660;23.366;2023-05-19T13:30:08;22.40;38.80
80367;DHT22;70058;42.660;23.366;2023-05-19T13:32:34;22.30;39.10
80367;DHT22;70058;42.660;23.366;2023-05-19T13:35:00;22.20;39.10
80367;DHT22;70058;42.660;23.366;2023-05-19T13:37:26;22.20;39.40
80367;DHT22;70058;42.660;23.366;2023-05-19T13:39:53;22.10;40.00
80367;DHT22;70058;42.660;23.366;2023-05-19T13:42:18;21.90;39.00
80367;DHT22;70058;42.660;23.366;2023-05-19T13:44:44;21.90;39.30
80367;DHT22;70058;42.660;23.366;2023-05-19T13:47:11;21.90;39.40
80367;DHT22;70058;42.660;23.366;2023-05-19T13:49:36;21.30;38.80
80367;DHT22;70058;42.660;23.366;2023-05-19T13:52:03;21.50;39.00
80367;DHT22;70058;42.660;23.366;2023-05-19T13:54:29;21.70;39.00
80367;DHT22;70058;42.660;23.366;2023-05-19T13:56:54;21.70;37.50
80367;DHT22;70058;42.660;23.366;2023-05-19T13:59:20;21.80;37.70
80367;DHT22;70058;42.660;23.366;2023-05-19T14:01:46;21.60;37.50
80367;DHT22;70058;42.660;23.366;2023-05-19T14:04:14;21.40;38.00
80367;DHT22;70058;42.660;23.366;2023-05-19T14:06:40;21.70;38.00
80367;DHT22;70058;42.660;23.366;2023-05-19T14:09:06;22.00;37.80
80367;DHT22;70058;42.660;23.366;2023-05-19T14:11:32;22.20;37.50
80367;DHT22;70058;42.660;23.366;2023-05-19T14:13:57;22.30;36.90
80367;DHT22;70058;42.660;23.366;2023-05-19T14:16:23;22.40;36.50
80367;DHT22;70058;42.660;23.366;2023-05-19T14:18:50;22.50;36.10
80367;DHT22;70058;42.660;23.366;2023-05-19T14:21:16;22.60;36.70
80367;DHT22;70058;42.660;23.366;2023-05-19T14:23:42;22.70;36.90
80367;DHT22;70058;42.660;23.366;2023-05-19T14:26:08;22.90;37.10
80367;DHT22;70058;42.660;23.366;2023-05-19T14:28:34;23.00;36.80
80367;DHT22;70058;42.660;23.366;2023-05-19T14:30:59;22.60;35.80
80367;DHT22;70058;42.660;23.366;2023-05-19T14:33:25;21.40;38.00
80367;DHT22;70058;42.660;23.366;2023-05-19T14:35:51;20.80;39.50
80367;DHT22;70058;42.660;23.366;2023-05-19T14:38:17;20.60;40.20
80367;DHT22;70058;42.660;23.366;2023-05-19T14:40:43;20.70;40.30
80367;DHT22;70058;42.660;23.366;2023-05-19T14:43:09;20.80;39.50
80367;DHT22;70058;42.660;23.366;2023-05-19T14:45:35;21.00;38.20
80367;DHT22;70058;42.660;23.366;2023-05-19T14:48:01;20.90;38.10
80367;DHT22;70058;42.660;23.366;2023-05-19T14:50:27;20.90;38.60
80367;DHT22;70058;42.660;23.366;2023-05-19T14:52:53;21.10;38.10
80367;DHT22;70058;42.660;23.366;2023-05-19T14:55:18;20.80;39.40
80367;DHT22;70058;42.660;23.366;2023-05-19T14:57:44;20.70;39.20
80367;DHT22;70058;42.660;23.366;2023-05-19T15:00:10;20.70;39.70
80367;DHT22;70058;42.660;23.366;2023-05-19T15:02:37;20.50;38.30
80367;DHT22;70058;42.660;23.366;2023-05-19T15:05:02;20.70;39.10
80367;DHT22;70058;42.660;23.366;2023-05-19T15:07:28;20.90;38.50
80367;DHT22;70058;42.660;23.366;2023-05-19T15:09:54;21.10;39.10
80367;DHT22;70058;42.660;23.366;2023-05-19T15:12:20;21.30;38.70
80367;DHT22;70058;42.660;23.366;2023-05-19T15:14:45;21.60;38.20
80367;DHT22;70058;42.660;23.366;2023-05-19T15:17:11;22.20;37.60
80367;DHT22;70058;42.660;23.366;2023-05-19T15:19:37;22.80;36.80
80367;DHT22;70058;42.660;23.366;2023-05-19T15:22:05;22.70;36.00
80367;DHT22;70058;42.660;23.366;2023-05-19T15:24:30;22.30;35.90
80367;DHT22;70058;42.660;23.366;2023-05-19T15:26:56;21.70;38.10
80367;DHT22;70058;42.660;23.366;2023-05-19T15:29:22;22.00;37.70
80367;DHT22;70058;42.660;23.366;2023-05-19T15:31:51;22.60;37.30
80367;DHT22;70058;42.660;23.366;2023-05-19T15:34:18;22.90;36.80
80367;DHT22;70058;42.660;23.366;2023-05-19T15:36:43;23.20;36.40
80367;DHT22;70058;42.660;23.366;2023-05-19T15:39:09;22.40;36.80
80367;DHT22;70058;42.660;23.366;2023-05-19T15:41:35;21.90;36.10
80367;DHT22;70058;42.660;23.366;2023-05-19T15:44:01;21.50;37.90
80367;DHT22;70058;42.660;23.366;2023-05-19T15:46:29;21.70;37.60